createdAt,value
2022-12-08T00:00:19.913Z,4.13
2022-12-08T00:02:46.511Z,6.63
2022-12-08T00:05:31.922Z,9.55
2022-12-08T00:08:17.240Z,5.47
2022-12-08T00:10:49.685Z,5.63
2022-12-08T00:13:16.708Z,4.35
2022-12-08T00:15:43.194Z,5.97
2022-12-08T00:18:09.769Z,8.32
2022-12-08T00:20:36.332Z,5.35
2022-12-08T00:23:04.359Z,4.75
2022-12-08T00:25:31.639Z,6.95
2022-12-08T00:27:58.167Z,5.25
2022-12-08T00:30:24.659Z,10.35
2022-12-08T00:32:51.207Z,4.57
2022-12-08T00:35:17.732Z,10.63
2022-12-08T00:37:44.262Z,7.75
2022-12-08T00:40:10.947Z,4.10
2022-12-08T00:42:37.434Z,6.40
2022-12-08T00:45:04.118Z,4.32
2022-12-08T00:47:30.626Z,4.18
2022-12-08T00:49:57.297Z,4.22
2022-12-08T00:52:23.791Z,3.58
2022-12-08T00:54:50.259Z,3.20
2022-12-08T00:57:18.209Z,3.05
2022-12-08T00:59:44.732Z,3.85
2022-12-08T01:02:11.208Z,5.82
2022-12-08T01:04:38.271Z,6.05
2022-12-08T01:07:04.746Z,3.42
2022-12-08T01:09:31.249Z,3.38
2022-12-08T01:11:57.749Z,8.35
2022-12-08T01:14:24.230Z,7.72
2022-12-08T01:16:50.851Z,11.80
2022-12-08T01:19:17.717Z,12.10
2022-12-08T01:21:44.961Z,3.03
2022-12-08T01:24:12.729Z,3.65
2022-12-08T01:26:39.280Z,6.80
2022-12-08T01:29:05.901Z,3.25
2022-12-08T01:31:32.461Z,5.97
2022-12-08T01:33:59.055Z,2.05
2022-12-08T01:36:26.391Z,5.90
2022-12-08T01:38:53.507Z,9.48
2022-12-08T01:41:21.271Z,6.18
2022-12-08T01:43:47.778Z,7.32
2022-12-08T01:46:14.291Z,5.60
2022-12-08T01:48:40.907Z,2.88
2022-12-08T01:51:07.621Z,4.88
2022-12-08T01:53:34.213Z,5.53
2022-12-08T01:56:04.779Z,3.63
2022-12-08T01:58:42.955Z,4.45
2022-12-08T02:01:10.122Z,5.75
2022-12-08T02:03:39.879Z,6.35
2022-12-08T02:06:06.918Z,4.63
2022-12-08T02:08:34.953Z,3.90
2022-12-08T02:11:01.501Z,7.13
2022-12-08T02:13:28.081Z,10.00
2022-12-08T02:16:09.912Z,4.03
2022-12-08T02:18:50.463Z,2.92
2022-12-08T02:21:37.968Z,7.60
2022-12-08T02:24:04.450Z,3.17
2022-12-08T02:26:30.935Z,10.20
2022-12-08T02:29:16.399Z,8.48
2022-12-08T02:32:01.156Z,3.22
2022-12-08T02:34:30.789Z,6.90
2022-12-08T02:37:08.933Z,3.17
2022-12-08T02:39:35.402Z,3.15
2022-12-08T02:42:15.086Z,3.67
2022-12-08T02:44:51.954Z,5.90
2022-12-08T02:47:19.550Z,4.90
2022-12-08T02:49:46.392Z,9.00
2022-12-08T02:52:12.928Z,5.47
2022-12-08T02:54:40.736Z,6.95
2022-12-08T02:57:19.478Z,6.28
2022-12-08T03:00:09.370Z,8.73
2022-12-08T03:02:45.370Z,6.13
2022-12-08T03:05:11.915Z,8.10
2022-12-08T03:07:58.692Z,8.73
2022-12-08T03:10:32.923Z,5.85
2022-12-08T03:13:04.013Z,3.92
2022-12-08T03:15:31.467Z,7.63
2022-12-08T03:17:59.160Z,3.25
2022-12-08T03:20:27.438Z,8.65
2022-12-08T03:22:55.841Z,5.28
2022-12-08T03:25:23.322Z,3.92
2022-12-08T03:27:50.778Z,4.85
2022-12-08T03:30:17.556Z,3.42
2022-12-08T03:32:47.856Z,8.52
2022-12-08T03:35:16.493Z,6.53
2022-12-08T03:37:43.535Z,10.20
2022-12-08T03:40:11.653Z,6.28
2022-12-08T03:42:38.193Z,3.25
2022-12-08T03:45:05.052Z,3.75
2022-12-08T03:47:31.759Z,1.88
2022-12-08T03:49:58.205Z,4.53
2022-12-08T03:52:24.651Z,6.78
2022-12-08T03:54:51.158Z,6.07
2022-12-08T03:57:17.622Z,3.97
2022-12-08T03:59:44.088Z,6.55
2022-12-08T04:02:10.622Z,7.00
2022-12-08T04:04:37.119Z,6.53
2022-12-08T04:07:03.629Z,5.05
2022-12-08T04:09:30.093Z,6.40
2022-12-08T04:11:56.707Z,6.40
2022-12-08T04:14:23.177Z,5.93
2022-12-08T04:16:49.620Z,2.97
2022-12-08T04:19:16.182Z,4.38
2022-12-08T04:21:42.669Z,6.25
2022-12-08T04:24:09.315Z,4.38
2022-12-08T04:26:35.741Z,3.92
2022-12-08T04:29:02.469Z,3.83
2022-12-08T04:31:28.951Z,3.63
2022-12-08T04:33:55.493Z,3.13
2022-12-08T04:36:22.030Z,1.65
2022-12-08T04:38:48.663Z,7.65
2022-12-08T04:41:15.166Z,6.90
2022-12-08T04:43:44.375Z,6.07
2022-12-08T04:46:11.366Z,3.38
2022-12-08T04:48:38.243Z,3.70
2022-12-08T04:51:04.877Z,2.53
2022-12-08T04:53:31.356Z,6.88
2022-12-08T04:55:57.846Z,5.63
2022-12-08T04:58:24.313Z,6.82
2022-12-08T05:00:50.831Z,5.70
2022-12-08T05:03:17.706Z,6.88
2022-12-08T05:05:44.449Z,3.47
2022-12-08T05:08:11.014Z,6.32
2022-12-08T05:10:37.672Z,6.80
2022-12-08T05:13:04.185Z,6.70
2022-12-08T05:15:30.725Z,2.33
2022-12-08T05:17:57.242Z,6.18
2022-12-08T05:20:23.793Z,1.85
2022-12-08T05:22:50.378Z,3.95
2022-12-08T05:25:16.851Z,4.50
2022-12-08T05:27:43.539Z,4.65
2022-12-08T05:30:10.097Z,1.08
2022-12-08T05:32:36.620Z,3.17
2022-12-08T05:35:03.100Z,1.80
2022-12-08T05:37:29.684Z,4.70
2022-12-08T05:39:56.254Z,1.45
2022-12-08T05:42:24.904Z,5.97
2022-12-08T05:44:51.852Z,3.60
2022-12-08T05:47:18.451Z,6.53
2022-12-08T05:49:45.052Z,4.80
2022-12-08T05:52:11.518Z,2.67
2022-12-08T05:54:38.279Z,9.48
2022-12-08T05:57:04.810Z,0.80
2022-12-08T05:59:31.284Z,0.93
2022-12-08T06:01:57.893Z,1.90
2022-12-08T06:04:24.450Z,2.67
2022-12-08T06:06:51.146Z,1.63
2022-12-08T06:09:17.594Z,0.50
2022-12-08T06:11:46.427Z,2.38
2022-12-08T06:14:13.013Z,1.17
2022-12-08T06:16:39.590Z,4.25
2022-12-08T06:19:06.188Z,0.40
2022-12-08T06:21:32.728Z,2.67
2022-12-08T06:24:02.217Z,1.42
2022-12-08T06:26:29.028Z,2.28
2022-12-08T06:28:56.550Z,1.85
2022-12-08T06:31:24.124Z,1.48
2022-12-08T06:33:51.129Z,0.95
2022-12-08T06:36:18.669Z,0.40
2022-12-08T06:38:45.490Z,1.35
2022-12-08T06:41:12.435Z,2.63
2022-12-08T06:43:39.047Z,0.98
2022-12-08T06:46:07.601Z,0.57
2022-12-08T06:48:34.165Z,3.05
2022-12-08T06:51:11.275Z,2.58
2022-12-08T06:53:38.303Z,0.60
2022-12-08T06:56:05.896Z,0.20
2022-12-08T06:58:32.462Z,1.30
2022-12-08T07:01:03.948Z,1.55
2022-12-08T07:03:30.431Z,0.40
2022-12-08T07:06:03.269Z,1.98
2022-12-08T07:10:56.964Z,0.50
2022-12-08T07:13:23.509Z,1.20
2022-12-08T07:15:50.122Z,0.65
2022-12-08T07:18:16.833Z,0.65
2022-12-08T07:20:43.347Z,1.35
2022-12-08T07:23:09.937Z,0.30
2022-12-08T07:25:36.486Z,0.80
2022-12-08T07:28:07.365Z,1.65
2022-12-08T07:30:33.831Z,1.05
2022-12-08T07:33:00.538Z,2.38
2022-12-08T07:35:26.994Z,1.58
2022-12-08T07:37:53.451Z,2.28
2022-12-08T07:40:19.934Z,0.50
2022-12-08T07:42:46.404Z,1.30
2022-12-08T07:45:12.861Z,1.23
2022-12-08T07:47:39.361Z,1.70
2022-12-08T07:50:06.363Z,5.15
2022-12-08T07:52:34.428Z,1.67
2022-12-08T07:55:00.921Z,1.00
2022-12-08T07:57:27.419Z,1.13
2022-12-08T07:59:53.935Z,1.13
2022-12-08T08:02:24.986Z,1.10
2022-12-08T08:04:52.522Z,4.53
2022-12-08T08:07:19.049Z,1.55
2022-12-08T08:09:45.961Z,0.60
2022-12-08T08:14:59.936Z,1.00
2022-12-08T08:17:26.532Z,0.82
2022-12-08T08:19:53.142Z,3.03
2022-12-08T08:22:19.645Z,3.05
2022-12-08T08:24:46.106Z,1.33
2022-12-08T08:27:12.765Z,2.97
2022-12-08T08:29:39.255Z,2.35
2022-12-08T08:32:05.769Z,2.85
2022-12-08T08:34:32.337Z,0.68
2022-12-08T08:36:58.908Z,4.30
2022-12-08T08:39:25.469Z,2.80
2022-12-08T08:41:52.178Z,4.30
2022-12-08T08:44:18.740Z,4.03
2022-12-08T08:46:45.311Z,4.45
2022-12-08T08:49:11.840Z,2.47
2022-12-08T08:51:38.521Z,4.35
2022-12-08T08:54:04.977Z,4.82
2022-12-08T08:56:31.486Z,2.42
2022-12-08T08:58:58.149Z,3.72
2022-12-08T09:01:26.567Z,5.45
2022-12-08T09:03:53.369Z,2.63
2022-12-08T09:06:20.301Z,1.63
2022-12-08T09:08:47.375Z,6.13
2022-12-08T09:11:14.142Z,3.47
2022-12-08T09:13:40.735Z,2.92
2022-12-08T09:16:08.023Z,1.80
2022-12-08T09:18:35.098Z,3.35
2022-12-08T09:21:05.706Z,4.80
2022-12-08T09:23:35.348Z,2.45
2022-12-08T09:26:03.011Z,4.38
2022-12-08T09:28:29.506Z,6.32
2022-12-08T09:30:56.057Z,6.93
2022-12-08T09:33:22.568Z,1.95
2022-12-08T09:35:49.051Z,7.00
2022-12-08T09:38:15.626Z,3.00
2022-12-08T09:40:49.450Z,2.75
2022-12-08T09:43:25.453Z,3.65
2022-12-08T09:45:52.392Z,6.82
2022-12-08T09:48:21.932Z,4.88
2022-12-08T09:50:52.588Z,4.07
2022-12-08T09:53:22.113Z,4.93
2022-12-08T09:56:00.297Z,4.15
2022-12-08T09:58:26.831Z,3.35
2022-12-08T10:00:53.418Z,1.73
2022-12-08T10:03:20.670Z,4.07
2022-12-08T10:05:56.089Z,2.95
2022-12-08T10:08:31.090Z,2.47
2022-12-08T10:10:58.722Z,1.30
2022-12-08T10:13:29.648Z,4.53
2022-12-08T10:15:56.153Z,5.25
2022-12-08T10:18:28.442Z,9.05
2022-12-08T10:20:57.692Z,1.88
2022-12-08T10:23:24.144Z,3.75
2022-12-08T10:25:54.772Z,3.10
2022-12-08T10:28:21.256Z,1.63
2022-12-08T10:30:47.726Z,2.92
2022-12-08T10:33:17.994Z,8.70
2022-12-08T10:35:52.227Z,6.43
2022-12-08T10:38:23.795Z,4.35
2022-12-08T10:40:51.548Z,4.40
2022-12-08T10:43:19.185Z,5.50
2022-12-08T10:45:45.841Z,5.50
2022-12-08T10:48:20.250Z,4.28
2022-12-08T10:50:52.701Z,8.77
2022-12-08T10:53:25.450Z,8.65
2022-12-08T10:55:58.051Z,6.00
2022-12-08T10:58:24.793Z,8.70
2022-12-08T11:00:52.541Z,5.60
2022-12-08T11:03:25.118Z,5.20
2022-12-08T11:05:55.615Z,5.00
2022-12-08T11:08:22.179Z,4.55
2022-12-08T11:10:48.814Z,6.60
2022-12-08T11:13:26.317Z,6.00
2022-12-08T11:15:54.331Z,5.90
2022-12-08T11:18:23.049Z,5.10
2022-12-08T11:20:56.159Z,4.95
2022-12-08T11:23:24.749Z,2.80
2022-12-08T11:25:51.841Z,5.43
2022-12-08T11:28:22.142Z,5.30
2022-12-08T11:30:54.448Z,4.22
2022-12-08T11:33:22.364Z,4.00
2022-12-08T11:36:05.693Z,5.78
2022-12-08T11:38:33.173Z,3.17
2022-12-08T11:41:03.656Z,9.20
2022-12-08T11:43:48.886Z,7.07
2022-12-08T11:46:20.151Z,6.65
2022-12-08T11:49:09.894Z,8.43
2022-12-08T11:51:36.349Z,6.07
2022-12-08T11:54:13.207Z,4.78
2022-12-08T11:56:44.812Z,7.20
2022-12-08T11:59:20.539Z,7.05
2022-12-08T12:01:47.089Z,7.40
2022-12-08T12:04:13.558Z,3.83
2022-12-08T12:07:07.978Z,7.15
2022-12-08T12:09:57.760Z,8.75
2022-12-08T12:12:44.186Z,10.57
2022-12-08T12:15:17.062Z,4.72
2022-12-08T12:17:58.367Z,6.25
2022-12-08T12:20:34.486Z,8.00
2022-12-08T12:23:04.901Z,8.48
2022-12-08T12:25:32.257Z,9.10
2022-12-08T12:28:01.146Z,7.07
2022-12-08T12:30:28.901Z,13.48
2022-12-08T12:32:57.562Z,11.88
2022-12-08T12:35:38.024Z,11.70
2022-12-08T12:38:59.834Z,15.85
2022-12-08T12:41:28.285Z,5.90
2022-12-08T12:44:09.141Z,11.10
2022-12-08T12:46:50.866Z,10.18
2022-12-08T12:49:36.183Z,13.38
2022-12-08T12:52:02.705Z,10.30
2022-12-08T12:54:32.194Z,8.98
2022-12-08T12:57:04.803Z,13.80
2022-12-08T12:59:35.192Z,9.52
2022-12-08T13:02:02.813Z,7.28
2022-12-08T13:04:34.973Z,8.10
2022-12-08T13:07:01.771Z,10.60
2022-12-08T13:09:39.348Z,16.42
2022-12-08T13:12:18.180Z,9.88
2022-12-08T13:14:46.878Z,5.78
2022-12-08T13:17:16.558Z,14.75
2022-12-08T13:19:51.545Z,9.65
2022-12-08T13:22:37.401Z,5.55
2022-12-08T13:25:22.643Z,9.48
2022-12-08T13:27:53.095Z,7.05
2022-12-08T13:30:43.008Z,5.45
2022-12-08T13:33:19.600Z,8.95
2022-12-08T13:35:48.011Z,9.85
2022-12-08T13:38:19.473Z,9.50
2022-12-08T13:40:46.778Z,8.40
2022-12-08T13:43:18.910Z,14.90
2022-12-08T13:46:48.790Z,15.90
2022-12-08T13:50:42.601Z,7.50
2022-12-08T13:57:11.234Z,9.35
2022-12-08T13:59:42.978Z,18.05
2022-12-08T14:02:29.755Z,13.75
2022-12-08T14:07:43.815Z,8.38
2022-12-08T14:10:16.394Z,8.15
2022-12-08T14:12:45.819Z,11.73
2022-12-08T14:15:13.810Z,17.77
2022-12-08T14:17:40.633Z,19.60
2022-12-08T14:20:19.820Z,17.70
2022-12-08T14:22:46.938Z,13.43
2022-12-08T14:25:14.738Z,17.23
2022-12-08T14:27:41.384Z,14.60
2022-12-08T14:30:15.951Z,19.42
2022-12-08T14:32:45.222Z,16.05
2022-12-08T14:35:15.665Z,19.73
2022-12-08T14:37:43.338Z,10.63
2022-12-08T14:40:10.127Z,10.50
2022-12-08T14:42:44.078Z,12.52
2022-12-08T14:45:12.568Z,16.27
2022-12-08T14:47:39.011Z,15.23
2022-12-08T14:50:25.602Z,18.63
2022-12-08T14:52:53.061Z,15.85
2022-12-08T14:55:19.574Z,20.23
2022-12-08T14:57:49.025Z,19.40
2022-12-08T15:00:19.859Z,10.32
2022-12-08T15:02:46.868Z,20.13
2022-12-08T15:05:16.963Z,12.73
2022-12-08T15:07:51.334Z,10.32
2022-12-08T15:10:17.817Z,16.85
2022-12-08T15:13:01.818Z,9.20
2022-12-08T15:18:00.922Z,13.50
2022-12-08T15:20:35.478Z,12.73
2022-12-08T15:23:02.611Z,7.88
2022-12-08T15:25:29.144Z,12.18
2022-12-08T15:27:57.178Z,14.02
2022-12-08T15:30:26.335Z,11.05
2022-12-08T15:32:54.278Z,9.60
2022-12-08T15:35:21.372Z,9.93
2022-12-08T15:37:47.942Z,11.70
2022-12-08T15:40:16.088Z,7.88
2022-12-08T15:42:42.543Z,10.02
2022-12-08T15:45:11.985Z,8.00
2022-12-08T15:47:38.879Z,8.43
2022-12-08T15:50:05.961Z,10.18
2022-12-08T15:52:32.571Z,5.78
2022-12-08T15:54:59.066Z,8.82
2022-12-08T15:58:17.390Z,11.63
2022-12-08T16:00:50.423Z,10.27
2022-12-08T16:03:42.015Z,5.78
2022-12-08T16:09:06.124Z,7.05
2022-12-08T16:12:06.720Z,7.57
2022-12-08T16:17:21.438Z,8.73
2022-12-08T16:19:47.978Z,4.25
2022-12-08T16:25:18.313Z,6.45
2022-12-08T16:28:12.424Z,13.27
2022-12-08T16:30:32.807Z,7.65
2022-12-08T16:32:59.274Z,7.50
2022-12-08T16:35:25.732Z,10.15
2022-12-08T16:37:52.206Z,10.93
2022-12-08T16:40:18.755Z,4.70
2022-12-08T16:42:46.936Z,9.43
2022-12-08T16:45:15.037Z,9.35
2022-12-08T16:47:42.851Z,8.80
2022-12-08T16:50:11.195Z,9.20
2022-12-08T16:52:37.763Z,6.90
2022-12-08T16:55:07.965Z,10.52
2022-12-08T16:57:34.538Z,4.35
2022-12-08T17:00:01.027Z,5.78
2022-12-08T17:02:27.521Z,10.13
2022-12-08T17:04:54.029Z,8.52
2022-12-08T17:07:20.573Z,9.07
2022-12-08T17:09:47.076Z,7.70
2022-12-08T17:12:13.556Z,15.27
2022-12-08T17:14:40.049Z,11.93
2022-12-08T17:17:06.770Z,9.27
2022-12-08T17:19:33.916Z,6.57
2022-12-08T17:22:00.666Z,9.75
2022-12-08T17:24:29.228Z,14.15
2022-12-08T17:26:56.866Z,9.30
2022-12-08T17:29:23.490Z,7.53
2022-12-08T17:31:51.020Z,6.80
2022-12-08T17:34:17.621Z,10.90
2022-12-08T17:36:44.141Z,13.75
2022-12-08T17:39:14.958Z,11.68
2022-12-08T17:41:44.676Z,11.65
2022-12-08T17:44:12.383Z,6.80
2022-12-08T17:46:42.722Z,8.60
2022-12-08T17:49:17.426Z,8.10
2022-12-08T17:51:45.695Z,8.13
2022-12-08T17:54:12.166Z,5.88
2022-12-08T17:56:38.739Z,10.93
2022-12-08T17:59:05.296Z,13.32
2022-12-08T18:01:34.472Z,5.53
2022-12-08T18:04:02.264Z,7.38
2022-12-08T18:06:31.193Z,9.77
2022-12-08T18:08:58.978Z,8.52
2022-12-08T18:11:26.034Z,10.20
2022-12-08T18:13:52.662Z,9.15
2022-12-08T18:16:20.181Z,8.68
2022-12-08T18:18:46.815Z,6.18
2022-12-08T18:21:14.731Z,6.25
2022-12-08T18:23:44.241Z,11.10
2022-12-08T18:26:11.333Z,7.88
2022-12-08T18:28:37.917Z,6.40
2022-12-08T18:31:08.807Z,6.78
2022-12-08T18:33:35.560Z,7.95
2022-12-08T18:36:02.018Z,7.93
2022-12-08T18:38:28.508Z,30.92
2022-12-08T18:40:55.019Z,2.55
2022-12-08T18:43:21.490Z,8.63
2022-12-08T18:45:52.174Z,6.85
2022-12-08T18:48:25.019Z,4.63
2022-12-08T18:50:54.651Z,4.18
2022-12-08T18:53:21.231Z,6.07
2022-12-08T19:10:55.274Z,7.20
2022-12-08T19:13:21.799Z,6.45
2022-12-08T19:15:48.459Z,6.30
2022-12-08T19:18:15.053Z,7.20
2022-12-08T19:20:41.522Z,10.38
2022-12-08T19:23:07.998Z,7.50
2022-12-08T19:25:34.541Z,11.88
2022-12-08T19:28:01.024Z,5.93
2022-12-08T19:30:28.108Z,6.47
2022-12-08T19:32:56.715Z,6.60
2022-12-08T19:35:23.695Z,6.85
2022-12-08T19:37:50.379Z,6.07
2022-12-08T19:40:35.601Z,6.25
2022-12-08T19:43:20.638Z,7.85
2022-12-08T19:45:47.192Z,9.00
2022-12-08T19:48:14.142Z,8.88
2022-12-08T19:50:41.315Z,5.63
2022-12-08T19:53:09.522Z,9.20
2022-12-08T19:55:36.636Z,9.20
2022-12-08T19:58:03.867Z,5.80
2022-12-08T20:00:30.934Z,3.70
2022-12-08T20:02:59.087Z,3.20
2022-12-08T20:05:26.256Z,4.90
2022-12-08T20:07:55.739Z,2.95
2022-12-08T20:10:34.635Z,5.57
2022-12-08T20:13:24.409Z,5.68
2022-12-08T20:15:51.597Z,5.43
2022-12-08T20:18:18.461Z,5.13
2022-12-08T20:20:45.582Z,9.52
2022-12-08T20:23:12.239Z,4.60
2022-12-08T20:25:39.885Z,8.48
2022-12-08T20:28:10.346Z,6.53
2022-12-08T20:30:41.173Z,7.43
2022-12-08T20:33:08.046Z,6.85
2022-12-08T20:35:37.392Z,4.10
2022-12-08T20:38:04.133Z,2.25
2022-12-08T20:40:37.098Z,7.50
2022-12-08T20:43:03.845Z,4.82
2022-12-08T20:45:30.597Z,5.10
2022-12-08T20:47:57.335Z,8.40
2022-12-08T20:50:24.146Z,8.45
2022-12-08T20:52:50.677Z,5.53
2022-12-08T20:55:17.352Z,4.75
2022-12-08T20:57:43.864Z,7.10
2022-12-08T21:00:11.233Z,8.38
2022-12-08T21:02:43.293Z,8.38
2022-12-08T21:05:13.710Z,4.97
2022-12-08T21:07:40.382Z,9.82
2022-12-08T21:10:07.582Z,5.28
2022-12-08T21:12:34.665Z,6.47
2022-12-08T21:15:01.342Z,6.60
2022-12-08T21:17:27.912Z,8.93
2022-12-08T21:19:56.894Z,7.57
2022-12-08T21:22:24.812Z,6.70
2022-12-08T21:24:51.474Z,5.32
2022-12-08T21:27:18.134Z,2.10
2022-12-08T21:29:44.615Z,5.03
2022-12-08T21:32:11.236Z,5.45
2022-12-08T21:34:37.980Z,3.70
2022-12-08T21:37:04.674Z,5.45
2022-12-08T21:39:31.202Z,5.88
2022-12-08T21:42:16.557Z,3.85
2022-12-08T21:44:43.250Z,3.97
2022-12-08T21:47:09.878Z,3.80
2022-12-08T21:49:36.543Z,3.70
2022-12-08T21:52:03.323Z,4.22
2022-12-08T21:54:31.589Z,6.20
2022-12-08T21:56:58.107Z,8.35
2022-12-08T21:59:24.763Z,2.05
2022-12-08T22:01:51.631Z,3.65
2022-12-08T22:04:25.703Z,5.25
2022-12-08T22:06:52.402Z,6.80
2022-12-08T22:09:19.071Z,6.53
2022-12-08T22:11:46.050Z,2.13
2022-12-08T22:14:14.801Z,2.67
2022-12-08T22:16:42.974Z,3.72
2022-12-08T22:19:15.259Z,4.63
2022-12-08T22:21:42.840Z,1.90
2022-12-08T22:24:09.484Z,5.93
2022-12-08T22:26:36.132Z,5.20
2022-12-08T22:29:02.626Z,1.80
2022-12-08T22:31:29.788Z,2.13
2022-12-08T22:33:58.587Z,4.75
2022-12-08T22:36:26.122Z,8.20
2022-12-08T22:38:53.364Z,4.80
2022-12-08T22:41:20.792Z,5.57
2022-12-08T22:43:47.963Z,4.15
2022-12-08T22:46:16.026Z,6.88
2022-12-08T22:48:42.727Z,1.98
2022-12-08T22:51:09.700Z,4.18
2022-12-08T22:53:36.241Z,7.38
2022-12-08T22:56:06.907Z,2.72
2022-12-08T22:58:33.819Z,4.72
2022-12-08T23:01:00.564Z,7.57
2022-12-08T23:03:27.232Z,5.88
2022-12-08T23:05:54.094Z,3.28
2022-12-08T23:08:20.911Z,6.03
2022-12-08T23:10:47.783Z,2.70
2022-12-08T23:13:14.557Z,1.85
2022-12-08T23:15:41.347Z,3.38
2022-12-08T23:18:08.178Z,4.05
2022-12-08T23:20:35.147Z,3.30
2022-12-08T23:23:01.741Z,1.42
2022-12-08T23:25:28.308Z,3.38
2022-12-08T23:27:54.818Z,2.75
2022-12-08T23:30:21.378Z,2.40
2022-12-08T23:32:48.070Z,4.35
2022-12-08T23:35:14.794Z,2.40
2022-12-08T23:37:41.313Z,4.00
2022-12-08T23:40:08.774Z,3.90
2022-12-08T23:42:35.652Z,15.57
2022-12-08T23:45:04.327Z,3.80
2022-12-08T23:47:31.073Z,2.10
2022-12-08T23:49:57.732Z,2.45
2022-12-08T23:52:24.421Z,4.10
2022-12-08T23:54:51.176Z,1.40
2022-12-08T23:57:17.973Z,2.13
2022-12-08T23:59:44.597Z,1.77
